Time;durP1;ratioP1;P1;durP2;ratioP2;P2;SDS_P1;SDS_P2;PMS_P1;PMS_P2;Temp;Humidity;BMP_temperature;BMP_pressure;BME280_temperature;BME280_humidity;BME280_pressure;Samples;Min_cycle;Max_cycle;Signal;HPM_P1;HPM_P2
2023/10/18 00:01:37;;;;;;;14.95;10.80;;;;;;;;;;5122369;27;20047;-59
2023/10/18 00:04:04;;;;;;;16.85;11.95;;;;;;;;;;5122665;27;20516;-59
2023/10/18 00:06:32;;;;;;;15.32;11.32;;;;;;;;;;5102349;27;20614;-59
2023/10/18 00:08:58;;;;;;;15.73;10.65;;;;;;;;;;5103483;27;20044;-60
2023/10/18 00:11:25;;;;;;;14.90;10.85;;;;;;;;;;5109974;27;20059;-59
2023/10/18 00:13:53;;;;;;;16.27;11.73;;;;;;;;;;5101749;27;20063;-58
2023/10/18 00:16:20;;;;;;;18.10;11.18;;;;;;;;;;5122436;27;20048;-59
2023/10/18 00:18:47;;;;;;;15.98;11.43;;;;;;;;;;5120206;27;20518;-59
2023/10/18 00:21:14;;;;;;;14.93;11.73;;;;;;;;;;5122797;27;20533;-57
2023/10/18 00:23:44;;;;;;;15.88;11.75;;;;;;;;;;5122333;27;20047;-59
2023/10/18 00:26:11;;;;;;;16.00;12.07;;;;;;;;;;5122727;27;20121;-59
2023/10/18 00:28:38;;;;;;;16.92;11.88;;;;;;;;;;5121802;27;20047;-58
2023/10/18 00:31:16;;;;;;;14.63;11.20;;;;;;;;;;5122396;27;20079;-59
2023/10/18 00:33:44;;;;;;;16.65;12.38;;;;;;;;;;5122400;27;20054;-59
2023/10/18 00:36:11;;;;;;;16.30;12.25;;;;;;;;;;5107870;27;20124;-59
2023/10/18 00:38:41;;;;;;;16.48;11.63;;;;;;;;;;5117513;27;20059;-57
2023/10/18 00:41:21;;;;;;;16.70;11.55;;;;;;;;;;5106839;27;20171;-57
2023/10/18 00:43:52;;;;;;;18.10;11.65;;;;;;;;;;5108796;27;20060;-58
2023/10/18 00:46:19;;;;;;;14.95;11.77;;;;;;;;;;5109395;27;20402;-58
2023/10/18 00:48:46;;;;;;;18.42;11.93;;;;;;;;;;5121422;27;20085;-58
2023/10/18 00:51:17;;;;;;;17.67;12.48;;;;;;;;;;5108744;27;20089;-58
2023/10/18 00:53:45;;;;;;;15.98;11.52;;;;;;;;;;5107445;27;20105;-59
2023/10/18 00:56:15;;;;;;;16.92;12.10;;;;;;;;;;5109912;27;20078;-59
2023/10/18 00:58:48;;;;;;;16.77;12.05;;;;;;;;;;5121643;27;20591;-58
2023/10/18 01:01:17;;;;;;;16.05;11.48;;;;;;;;;;5122271;27;20055;-59
2023/10/18 01:03:49;;;;;;;15.60;11.15;;;;;;;;;;5122050;27;20048;-57
2023/10/18 01:06:21;;;;;;;15.65;10.45;;;;;;;;;;5125449;27;20182;-58
2023/10/18 01:08:48;;;;;;;15.18;10.80;;;;;;;;;;5125612;27;20616;-60
2023/10/18 01:11:18;;;;;;;16.45;11.65;;;;;;;;;;5125552;27;20147;-60
2023/10/18 01:13:45;;;;;;;15.38;11.23;;;;;;;;;;5126062;27;20716;-58
2023/10/18 01:16:15;;;;;;;16.48;11.65;;;;;;;;;;5124177;27;20512;-59
2023/10/18 01:18:45;;;;;;;15.52;11.35;;;;;;;;;;5125073;27;20052;-59
2023/10/18 01:21:17;;;;;;;16.48;11.93;;;;;;;;;;5124452;27;20055;-59
2023/10/18 01:23:49;;;;;;;15.45;11.27;;;;;;;;;;5126074;27;20552;-60
2023/10/18 01:26:16;;;;;;;18.45;12.43;;;;;;;;;;5125063;27;20074;-59
2023/10/18 01:28:42;;;;;;;15.68;11.02;;;;;;;;;;5109809;27;20599;-59
2023/10/18 01:31:09;;;;;;;13.95;11.10;;;;;;;;;;5116973;27;20083;-58
2023/10/18 01:33:48;;;;;;;17.30;11.95;;;;;;;;;;5124890;27;20062;-57
2023/10/18 01:36:15;;;;;;;16.35;11.90;;;;;;;;;;5120163;27;20055;-59
2023/10/18 01:38:44;;;;;;;20.35;13.07;;;;;;;;;;5120659;27;20047;-59
2023/10/18 01:41:44;;;;;;;16.75;11.23;;;;;;;;;;5107174;27;20082;-60
2023/10/18 01:44:07;;;;;;;19.02;12.10;;;;;;;;;;5122816;27;20056;-60
2023/10/18 01:46:34;;;;;;;18.60;12.45;;;;;;;;;;5124172;27;20055;-59
2023/10/18 01:49:01;;;;;;;16.25;10.95;;;;;;;;;;5125563;27;20091;-59
2023/10/18 01:51:28;;;;;;;16.50;11.07;;;;;;;;;;5125174;27;20051;-59
2023/10/18 01:54:02;;;;;;;19.25;11.13;;;;;;;;;;5124118;27;20152;-59
2023/10/18 01:56:29;;;;;;;16.63;11.85;;;;;;;;;;5116241;27;20044;-56
2023/10/18 01:58:55;;;;;;;15.95;11.50;;;;;;;;;;5116849;27;21071;-59
2023/10/18 02:01:22;;;;;;;15.95;10.80;;;;;;;;;;5125433;27;20055;-59
2023/10/18 02:03:53;;;;;;;16.77;11.02;;;;;;;;;;5108240;27;20056;-58
2023/10/18 02:06:20;;;;;;;16.25;11.60;;;;;;;;;;5114019;27;20575;-58
2023/10/18 02:08:48;;;;;;;15.05;10.82;;;;;;;;;;5124466;27;20052;-59
2023/10/18 02:11:15;;;;;;;17.92;11.27;;;;;;;;;;5125181;27;20047;-60
2023/10/18 02:13:41;;;;;;;17.05;11.50;;;;;;;;;;5122992;27;20124;-59
2023/10/18 02:16:15;;;;;;;17.35;11.45;;;;;;;;;;5121741;27;20136;-59
2023/10/18 02:18:46;;;;;;;17.20;11.68;;;;;;;;;;5116454;27;20597;-59
2023/10/18 02:21:14;;;;;;;16.20;11.45;;;;;;;;;;5104422;27;20051;-59
2023/10/18 02:23:41;;;;;;;15.13;11.45;;;;;;;;;;5103896;27;20580;-59
2023/10/18 02:26:30;;;;;;;15.00;10.73;;;;;;;;;;5113271;27;20090;-59
2023/10/18 02:28:54;;;;;;;18.30;11.60;;;;;;;;;;5124002;27;20535;-59
2023/10/18 02:31:23;;;;;;;15.95;11.63;;;;;;;;;;5122771;27;20104;-59
2023/10/18 02:33:50;;;;;;;17.60;11.25;;;;;;;;;;5122362;27;20343;-57
2023/10/18 02:39:01;;;;;;;17.25;11.35;;;;;;;;;;5123338;27;20516;-59
2023/10/18 02:41:28;;;;;;;16.17;11.70;;;;;;;;;;5113205;27;20052;-59
2023/10/18 02:43:55;;;;;;;21.15;11.40;;;;;;;;;;5122517;27;20480;-59
2023/10/18 02:46:25;;;;;;;16.27;11.77;;;;;;;;;;5130334;27;20055;-59
2023/10/18 02:48:52;;;;;;;17.50;11.48;;;;;;;;;;5104189;27;20442;-59
2023/10/18 02:51:22;;;;;;;16.90;11.32;;;;;;;;;;5103888;27;20048;-57
2023/10/18 02:53:49;;;;;;;19.58;11.55;;;;;;;;;;5123263;27;20051;-59
2023/10/18 02:56:26;;;;;;;16.50;10.95;;;;;;;;;;5122876;27;20130;-59
2023/10/18 02:58:55;;;;;;;17.27;11.48;;;;;;;;;;5124295;27;20095;-59
2023/10/18 03:01:25;;;;;;;19.73;11.90;;;;;;;;;;5104105;27;20056;-57
2023/10/18 03:03:55;;;;;;;17.05;12.52;;;;;;;;;;5123224;27;20075;-59
2023/10/18 03:06:27;;;;;;;17.05;12.48;;;;;;;;;;5116670;27;20051;-59
2023/10/18 03:08:58;;;;;;;18.55;12.88;;;;;;;;;;5122533;27;20129;-59
2023/10/18 03:11:25;;;;;;;16.27;11.10;;;;;;;;;;5123794;27;20075;-59
2023/10/18 03:13:52;;;;;;;17.02;11.82;;;;;;;;;;5105484;27;20434;-59
2023/10/18 03:17:13;;;;;;;21.00;12.10;;;;;;;;;;5114480;27;20132;-59
2023/10/18 03:19:17;;;;;;;19.25;12.52;;;;;;;;;;5121073;27;20595;-59
2023/10/18 03:21:50;;;;;;;17.77;12.90;;;;;;;;;;5105181;27;20480;-59
2023/10/18 03:24:21;;;;;;;20.02;12.48;;;;;;;;;;5124176;27;20052;-59
2023/10/18 03:26:47;;;;;;;17.85;12.32;;;;;;;;;;5102604;27;20083;-59
2023/10/18 03:29:17;;;;;;;21.13;12.32;;;;;;;;;;5109982;27;20059;-59
2023/10/18 03:31:44;;;;;;;17.75;11.73;;;;;;;;;;5110726;27;20105;-59
2023/10/18 03:34:18;;;;;;;19.55;12.60;;;;;;;;;;5121399;27;20535;-59
2023/10/18 03:36:52;;;;;;;18.83;11.82;;;;;;;;;;5119207;27;20052;-57
2023/10/18 03:39:19;;;;;;;17.13;11.60;;;;;;;;;;5117026;27;20051;-59
2023/10/18 03:41:48;;;;;;;18.63;11.82;;;;;;;;;;5112109;27;20783;-59
2023/10/18 03:44:21;;;;;;;17.23;12.63;;;;;;;;;;5118157;27;20048;-59
2023/10/18 03:46:48;;;;;;;20.50;13.27;;;;;;;;;;5119204;27;20066;-57
2023/10/18 03:52:02;;;;;;;19.10;11.95;;;;;;;;;;5106146;27;20059;-59
2023/10/18 03:54:43;;;;;;;21.35;13.07;;;;;;;;;;5116067;27;20728;-59
2023/10/18 03:57:15;;;;;;;18.17;12.05;;;;;;;;;;5103046;27;20442;-58
2023/10/18 03:59:45;;;;;;;17.40;11.85;;;;;;;;;;5104318;27;20147;-60
2023/10/18 04:04:50;;;;;;;18.13;12.25;;;;;;;;;;5123175;27;20052;-59
2023/10/18 04:07:16;;;;;;;15.43;11.25;;;;;;;;;;5122043;27;20052;-60
2023/10/18 04:12:29;;;;;;;16.45;12.07;;;;;;;;;;5120140;27;20047;-59
2023/10/18 04:14:58;;;;;;;19.15;12.43;;;;;;;;;;5112689;27;20113;-61
2023/10/18 04:17:36;;;;;;;19.40;12.93;;;;;;;;;;5102371;27;20052;-60
2023/10/18 04:20:31;;;;;;;18.00;12.50;;;;;;;;;;5115536;27;20336;-60
2023/10/18 04:22:55;;;;;;;19.55;12.13;;;;;;;;;;5111964;27;20597;-60
2023/10/18 04:25:29;;;;;;;22.13;12.32;;;;;;;;;;5107287;27;20051;-60
2023/10/18 04:27:59;;;;;;;21.27;12.85;;;;;;;;;;5123449;27;20079;-60
2023/10/18 04:30:29;;;;;;;18.02;11.70;;;;;;;;;;5125069;27;20051;-61
2023/10/18 04:33:12;;;;;;;22.90;13.00;;;;;;;;;;5107898;27;20135;-60
2023/10/18 04:35:45;;;;;;;19.42;11.75;;;;;;;;;;5115761;27;20108;-58
2023/10/18 04:38:22;;;;;;;17.50;11.23;;;;;;;;;;5119579;27;20560;-58
2023/10/18 04:40:56;;;;;;;16.73;12.05;;;;;;;;;;5125595;27;20124;-60
2023/10/18 04:43:27;;;;;;;16.40;11.15;;;;;;;;;;5134046;27;20051;-59
2023/10/18 04:45:57;;;;;;;17.58;11.60;;;;;;;;;;5112287;27;20056;-59
2023/10/18 04:48:59;;;;;;;17.65;12.23;;;;;;;;;;5118141;27;20101;-58
2023/10/18 04:51:26;;;;;;;18.77;12.18;;;;;;;;;;5105675;27;20071;-59
2023/10/18 04:54:08;;;;;;;18.35;12.73;;;;;;;;;;5105441;27;20056;-59
2023/10/18 04:56:38;;;;;;;17.60;11.82;;;;;;;;;;5118487;27;20125;-59
2023/10/18 04:59:11;;;;;;;18.67;11.88;;;;;;;;;;5130746;27;20047;-59
2023/10/18 05:01:49;;;;;;;16.27;11.65;;;;;;;;;;5124170;27;20051;-59
2023/10/18 05:04:19;;;;;;;17.70;11.85;;;;;;;;;;5125407;27;20083;-60
2023/10/18 05:06:54;;;;;;;17.38;12.02;;;;;;;;;;5121819;27;20055;-60
2023/10/18 05:09:31;;;;;;;20.42;11.77;;;;;;;;;;5126092;27;20048;-58
2023/10/18 05:11:59;;;;;;;18.52;12.82;;;;;;;;;;5126216;27;20630;-58
2023/10/18 05:14:50;;;;;;;16.23;10.52;;;;;;;;;;5110350;27;20060;-57
2023/10/18 05:18:04;;;;;;;18.08;11.63;;;;;;;;;;5123191;27;20057;-57
2023/10/18 05:22:44;;;;;;;19.05;11.88;;;;;;;;;;5118076;27;20135;-58
2023/10/18 05:27:59;;;;;;;19.50;11.88;;;;;;;;;;5104764;27;20063;-59
2023/10/18 05:30:27;;;;;;;17.13;11.98;;;;;;;;;;5135692;27;20130;-58
2023/10/18 05:35:33;;;;;;;18.00;11.45;;;;;;;;;;5124145;27;20056;-60
2023/10/18 05:38:06;;;;;;;19.88;11.85;;;;;;;;;;5125139;27;20048;-59
2023/10/18 05:43:13;;;;;;;15.98;11.23;;;;;;;;;;5108182;27;20430;-59
2023/10/18 05:45:42;;;;;;;18.05;11.60;;;;;;;;;;5124831;27;20147;-59
2023/10/18 05:48:12;;;;;;;20.45;12.43;;;;;;;;;;5118458;27;20055;-58
2023/10/18 05:50:39;;;;;;;16.88;10.85;;;;;;;;;;5119551;27;20047;-58
2023/10/18 05:53:12;;;;;;;18.50;11.57;;;;;;;;;;5119448;27;20121;-60
2023/10/18 05:55:38;;;;;;;16.98;10.93;;;;;;;;;;5123063;27;20721;-58
2023/10/18 05:58:05;;;;;;;17.05;11.90;;;;;;;;;;5125358;27;20590;-57
2023/10/18 06:00:33;;;;;;;15.73;10.75;;;;;;;;;;5129640;27;20595;-57
2023/10/18 06:02:59;;;;;;;14.65;11.50;;;;;;;;;;5126562;27;20058;-59
2023/10/18 06:05:33;;;;;;;18.80;11.20;;;;;;;;;;5124694;27;20406;-58
2023/10/18 06:08:01;;;;;;;18.83;12.10;;;;;;;;;;5124872;27;20078;-58
2023/10/18 06:10:27;;;;;;;15.00;11.18;;;;;;;;;;5123911;27;20407;-56
2023/10/18 06:13:05;;;;;;;19.15;11.82;;;;;;;;;;5115074;27;20634;-59
2023/10/18 06:15:34;;;;;;;19.67;12.27;;;;;;;;;;5104402;28;20147;-57
2023/10/18 06:18:01;;;;;;;16.65;11.55;;;;;;;;;;5113935;27;20050;-58
2023/10/18 06:20:27;;;;;;;17.92;11.75;;;;;;;;;;5124086;27;20142;-58
2023/10/18 06:25:49;;;;;;;17.83;11.73;;;;;;;;;;5124873;27;20160;-59
2023/10/18 06:28:21;;;;;;;18.70;12.00;;;;;;;;;;5124656;27;20052;-57
2023/10/18 06:30:51;;;;;;;21.17;11.63;;;;;;;;;;5124600;27;20056;-58
2023/10/18 06:33:21;;;;;;;17.95;12.55;;;;;;;;;;5113262;27;20082;-58
2023/10/18 06:35:51;;;;;;;20.00;10.73;;;;;;;;;;5112283;27;20223;-57
2023/10/18 06:38:22;;;;;;;20.98;11.45;;;;;;;;;;5124792;27;20537;-58
2023/10/18 06:43:31;;;;;;;14.68;10.75;;;;;;;;;;5124383;27;20060;-59
2023/10/18 06:45:58;;;;;;;18.08;11.82;;;;;;;;;;5123885;27;20105;-59
2023/10/18 06:48:28;;;;;;;17.50;11.02;;;;;;;;;;5123668;27;20047;-59
2023/10/18 06:50:55;;;;;;;18.90;11.73;;;;;;;;;;5124114;27;20086;-59
2023/10/18 06:53:22;;;;;;;17.27;11.75;;;;;;;;;;5124249;27;20055;-59
2023/10/18 06:56:07;;;;;;;16.48;11.93;;;;;;;;;;5122610;27;20356;-57
2023/10/18 07:01:04;;;;;;;15.38;10.88;;;;;;;;;;5119598;27;20055;-60
2023/10/18 07:03:36;;;;;;;18.90;11.20;;;;;;;;;;5111599;27;20063;-59
2023/10/18 07:06:05;;;;;;;16.52;11.40;;;;;;;;;;5125030;27;20071;-60
2023/10/18 07:08:37;;;;;;;16.30;11.40;;;;;;;;;;5123657;27;20058;-60
2023/10/18 07:11:08;;;;;;;21.00;10.63;;;;;;;;;;5124220;27;20052;-60
2023/10/18 07:13:48;;;;;;;20.20;11.50;;;;;;;;;;5123722;27;20056;-59
2023/10/18 07:19:06;;;;;;;18.75;10.68;;;;;;;;;;5123247;27;20059;-60
2023/10/18 07:21:33;;;;;;;15.90;10.32;;;;;;;;;;5124341;27;20305;-55
2023/10/18 07:24:09;;;;;;;16.65;11.15;;;;;;;;;;5123700;27;20048;-60
2023/10/18 07:26:36;;;;;;;15.20;10.63;;;;;;;;;;5124227;27;20706;-60
2023/10/18 07:29:09;;;;;;;15.38;9.60;;;;;;;;;;5118161;27;20468;-59
2023/10/18 07:31:39;;;;;;;15.82;10.70;;;;;;;;;;5123481;27;20144;-58
2023/10/18 07:34:09;;;;;;;14.07;9.43;;;;;;;;;;5123752;27;20069;-60
2023/10/18 07:36:38;;;;;;;15.45;9.88;;;;;;;;;;5124090;27;20056;-58
2023/10/18 07:39:05;;;;;;;15.38;10.48;;;;;;;;;;5123996;27;20142;-60
2023/10/18 07:41:35;;;;;;;13.93;9.70;;;;;;;;;;5123662;27;20082;-57
2023/10/18 07:44:05;;;;;;;12.70;9.18;;;;;;;;;;5123156;27;20056;-61
2023/10/18 07:46:39;;;;;;;13.30;9.85;;;;;;;;;;5123005;27;20048;-60
2023/10/18 07:49:14;;;;;;;14.82;9.73;;;;;;;;;;5123653;27;20055;-60
2023/10/18 07:51:48;;;;;;;13.90;8.80;;;;;;;;;;5123976;27;20166;-59
2023/10/18 07:54:16;;;;;;;16.88;9.57;;;;;;;;;;5127456;27;20142;-59
2023/10/18 07:56:48;;;;;;;15.95;10.15;;;;;;;;;;5139174;27;20438;-60
2023/10/18 07:59:28;;;;;;;13.13;8.90;;;;;;;;;;5123800;27;20591;-58
2023/10/18 08:04:47;;;;;;;12.93;8.20;;;;;;;;;;5123285;27;20056;-60
2023/10/18 08:07:27;;;;;;;14.20;8.90;;;;;;;;;;5122898;27;20058;-55
2023/10/18 08:09:57;;;;;;;11.20;8.75;;;;;;;;;;5123690;27;20083;-60
2023/10/18 08:14:50;;;;;;;13.25;8.88;;;;;;;;;;5124267;27;20052;-58
2023/10/18 08:22:51;;;;;;;17.27;8.68;;;;;;;;;;5123527;27;20540;-58
2023/10/18 08:25:24;;;;;;;13.82;8.43;;;;;;;;;;5126556;27;20047;-58
2023/10/18 08:27:51;;;;;;;14.90;9.32;;;;;;;;;;5125492;27;20060;-63
2023/10/18 08:30:24;;;;;;;10.35;8.43;;;;;;;;;;5127009;27;20051;-59
2023/10/18 08:32:51;;;;;;;13.55;8.95;;;;;;;;;;5125123;27;20056;-59
2023/10/18 08:35:21;;;;;;;11.80;8.35;;;;;;;;;;5125898;27;20040;-59
2023/10/18 08:37:47;;;;;;;11.30;8.40;;;;;;;;;;5126500;27;20059;-59
2023/10/18 08:40:27;;;;;;;9.68;8.13;;;;;;;;;;5127006;27;20044;-59
2023/10/18 08:43:15;;;;;;;12.57;7.78;;;;;;;;;;5126189;27;20058;-59
2023/10/18 08:45:48;;;;;;;15.93;8.45;;;;;;;;;;5098543;27;20079;-60
2023/10/18 08:48:27;;;;;;;12.35;9.05;;;;;;;;;;5115426;27;20047;-60
2023/10/18 08:50:56;;;;;;;10.57;8.02;;;;;;;;;;5127651;27;20525;-60
2023/10/18 08:53:25;;;;;;;13.52;7.60;;;;;;;;;;5129217;27;20056;-59
2023/10/18 08:55:53;;;;;;;11.30;7.15;;;;;;;;;;5111129;27;20052;-59
2023/10/18 08:58:21;;;;;;;13.32;7.93;;;;;;;;;;5117753;27;20568;-60
2023/10/18 09:03:23;;;;;;;11.52;7.82;;;;;;;;;;5126057;27;20055;-59
2023/10/18 09:06:03;;;;;;;11.98;7.60;;;;;;;;;;5126279;27;20178;-60
2023/10/18 09:08:35;;;;;;;11.60;7.78;;;;;;;;;;5128645;27;20138;-60
2023/10/18 09:11:19;;;;;;;13.27;7.53;;;;;;;;;;5126018;27;20052;-60
2023/10/18 09:14:07;;;;;;;10.80;7.80;;;;;;;;;;5120434;27;20067;-59
2023/10/18 09:16:40;;;;;;;11.13;7.63;;;;;;;;;;5105746;27;20562;-57
2023/10/18 09:19:07;;;;;;;11.02;7.00;;;;;;;;;;5119582;27;20055;-57
2023/10/18 09:21:44;;;;;;;9.93;7.22;;;;;;;;;;5126327;27;20119;-60
2023/10/18 09:24:11;;;;;;;10.98;7.97;;;;;;;;;;5126381;27;20051;-61
2023/10/18 09:26:41;;;;;;;9.35;6.85;;;;;;;;;;5125686;27;20063;-57
2023/10/18 09:29:08;;;;;;;10.07;6.85;;;;;;;;;;5124769;27;20051;-57
2023/10/18 09:31:36;;;;;;;12.13;7.78;;;;;;;;;;5125551;27;20104;-61
2023/10/18 09:34:09;;;;;;;8.40;6.88;;;;;;;;;;5120829;27;20059;-58
2023/10/18 09:36:39;;;;;;;8.18;6.28;;;;;;;;;;5104603;27;20461;-60
2023/10/18 09:39:11;;;;;;;9.23;7.18;;;;;;;;;;5115480;27;20134;-60
2023/10/18 09:41:39;;;;;;;10.40;6.70;;;;;;;;;;5124486;27;20521;-60
2023/10/18 09:44:06;;;;;;;9.18;6.80;;;;;;;;;;5125722;27;20075;-61
2023/10/18 09:46:34;;;;;;;10.38;7.38;;;;;;;;;;5124554;27;20079;-60
2023/10/18 09:49:04;;;;;;;11.23;6.78;;;;;;;;;;5125377;27;20051;-61
2023/10/18 09:51:31;;;;;;;8.88;7.05;;;;;;;;;;5124284;27;20425;-60
2023/10/18 09:53:59;;;;;;;11.38;7.40;;;;;;;;;;5124476;27;20079;-60
2023/10/18 09:56:35;;;;;;;11.60;7.40;;;;;;;;;;5124026;27;20468;-59
2023/10/18 09:59:05;;;;;;;9.50;7.05;;;;;;;;;;5124182;27;20044;-59
2023/10/18 10:04:12;;;;;;;8.30;6.57;;;;;;;;;;5119652;27;20063;-59
2023/10/18 10:06:45;;;;;;;10.80;7.53;;;;;;;;;;5104489;27;20494;-58
2023/10/18 10:09:13;;;;;;;8.43;6.45;;;;;;;;;;5116954;27;20063;-60
2023/10/18 10:11:43;;;;;;;8.43;6.32;;;;;;;;;;5121086;27;20059;-60
2023/10/18 10:14:17;;;;;;;9.02;6.75;;;;;;;;;;5140364;27;20086;-60
2023/10/18 10:17:06;;;;;;;8.95;6.65;;;;;;;;;;5124770;27;20051;-60
2023/10/18 10:19:40;;;;;;;9.10;6.53;;;;;;;;;;5124959;27;20591;-60
2023/10/18 10:22:08;;;;;;;9.48;6.85;;;;;;;;;;5124488;27;20052;-59
2023/10/18 10:24:51;;;;;;;8.90;6.43;;;;;;;;;;5124337;27;20089;-58
2023/10/18 10:32:58;;;;;;;9.32;6.68;;;;;;;;;;5125101;27;20150;-60
2023/10/18 10:35:26;;;;;;;9.37;6.37;;;;;;;;;;5124333;27;20055;-60
2023/10/18 10:38:18;;;;;;;7.68;6.25;;;;;;;;;;5123228;27;20047;-57
2023/10/18 10:40:49;;;;;;;13.73;6.72;;;;;;;;;;5128755;27;20051;-60
2023/10/18 10:43:18;;;;;;;7.68;5.78;;;;;;;;;;5145827;27;20153;-60
2023/10/18 10:48:18;;;;;;;8.13;5.90;;;;;;;;;;5122675;27;20562;-58
2023/10/18 10:50:50;;;;;;;9.93;6.28;;;;;;;;;;5124154;27;20063;-60
2023/10/18 10:53:29;;;;;;;7.53;5.68;;;;;;;;;;5129593;27;20056;-60
2023/10/18 10:55:56;;;;;;;9.98;5.88;;;;;;;;;;5119786;27;20082;-59
2023/10/18 10:58:29;;;;;;;7.43;5.93;;;;;;;;;;5123338;27;20052;-61
2023/10/18 11:01:05;;;;;;;8.55;5.53;;;;;;;;;;5123346;27;20068;-59
2023/10/18 11:03:53;;;;;;;7.80;5.43;;;;;;;;;;5124368;27;20087;-60
2023/10/18 11:06:24;;;;;;;6.78;5.20;;;;;;;;;;5124616;27;20089;-61
2023/10/18 11:08:51;;;;;;;7.70;5.18;;;;;;;;;;5123662;27;20063;-60
2023/10/18 11:11:21;;;;;;;13.20;6.68;;;;;;;;;;5124017;27;20493;-60
2023/10/18 11:13:50;;;;;;;5.90;5.22;;;;;;;;;;5124205;27;20044;-60
2023/10/18 11:16:24;;;;;;;6.88;5.50;;;;;;;;;;5123520;27;20135;-60
2023/10/18 11:18:52;;;;;;;6.80;5.18;;;;;;;;;;5124269;27;20052;-60
2023/10/18 11:21:29;;;;;;;8.95;5.45;;;;;;;;;;5104304;27;20530;-60
2023/10/18 11:24:02;;;;;;;7.00;5.18;;;;;;;;;;5105051;27;20052;-60
2023/10/18 11:26:29;;;;;;;7.90;5.32;;;;;;;;;;5104503;27;20048;-61
2023/10/18 11:28:58;;;;;;;11.10;5.07;;;;;;;;;;5124005;27;20217;-60
2023/10/18 11:31:26;;;;;;;5.93;4.82;;;;;;;;;;5123925;27;20205;-60
2023/10/18 11:34:04;;;;;;;6.97;5.50;;;;;;;;;;5123769;27;20052;-60
2023/10/18 11:36:32;;;;;;;9.02;5.22;;;;;;;;;;5103149;27;20052;-60
2023/10/18 11:41:44;;;;;;;6.68;4.63;;;;;;;;;;5123736;27;20142;-60
2023/10/18 11:44:16;;;;;;;7.25;4.95;;;;;;;;;;5123149;27;20055;-60
2023/10/18 11:46:51;;;;;;;6.90;4.93;;;;;;;;;;5123360;27;20140;-60
2023/10/18 11:49:19;;;;;;;7.00;5.55;;;;;;;;;;5123434;27;20138;-60
2023/10/18 11:51:48;;;;;;;7.20;5.00;;;;;;;;;;5122882;27;20501;-60
2023/10/18 11:54:33;;;;;;;7.65;5.22;;;;;;;;;;5132822;27;20054;-60
2023/10/18 11:57:00;;;;;;;6.60;4.80;;;;;;;;;;5103078;28;20102;-60
2023/10/18 11:59:31;;;;;;;6.55;4.93;;;;;;;;;;5121539;27;20588;-59
2023/10/18 12:01:59;;;;;;;7.95;5.75;;;;;;;;;;5122915;27;20497;-60
2023/10/18 12:04:28;;;;;;;9.63;5.53;;;;;;;;;;5123282;27;20058;-59
2023/10/18 12:06:56;;;;;;;9.13;6.25;;;;;;;;;;5122819;27;20071;-60
2023/10/18 12:11:49;;;;;;;11.02;5.97;;;;;;;;;;5122823;27;20083;-58
2023/10/18 12:14:15;;;;;;;10.50;5.53;;;;;;;;;;5123582;27;20319;-60
2023/10/18 12:16:42;;;;;;;8.82;5.57;;;;;;;;;;5121025;27;20326;-59
2023/10/18 12:19:10;;;;;;;9.00;5.38;;;;;;;;;;5123755;27;20116;-54
2023/10/18 12:21:37;;;;;;;8.45;5.38;;;;;;;;;;5141637;27;20196;-57
2023/10/18 12:24:07;;;;;;;7.70;5.32;;;;;;;;;;5144226;27;20051;-57
2023/10/18 12:26:39;;;;;;;8.98;5.85;;;;;;;;;;5122605;27;20056;-59
2023/10/18 12:29:05;;;;;;;7.60;5.70;;;;;;;;;;5122761;27;20079;-59
2023/10/18 12:31:42;;;;;;;7.05;5.18;;;;;;;;;;5123379;27;20146;-59
2023/10/18 12:34:14;;;;;;;6.47;4.80;;;;;;;;;;5123544;27;20052;-60
2023/10/18 12:36:40;;;;;;;14.00;5.28;;;;;;;;;;5103034;27;20143;-61
2023/10/18 12:39:09;;;;;;;7.70;5.30;;;;;;;;;;5102633;27;20619;-59
2023/10/18 12:41:42;;;;;;;6.85;4.38;;;;;;;;;;5120870;27;20047;-58
2023/10/18 12:44:11;;;;;;;8.98;5.43;;;;;;;;;;5122619;27;20135;-60
2023/10/18 12:46:38;;;;;;;10.27;4.97;;;;;;;;;;5122019;27;20052;-60
2023/10/18 12:49:10;;;;;;;7.60;5.10;;;;;;;;;;5122946;27;20589;-58
2023/10/18 12:51:42;;;;;;;5.60;4.55;;;;;;;;;;5122903;27;20109;-60
2023/10/18 12:54:19;;;;;;;7.32;5.60;;;;;;;;;;5123083;27;20486;-60
2023/10/18 12:57:09;;;;;;;9.55;4.70;;;;;;;;;;5122793;27;20935;-59
2023/10/18 13:05:07;;;;;;;5.15;4.38;;;;;;;;;;5121963;27;20165;-61
2023/10/18 13:07:37;;;;;;;6.55;4.97;;;;;;;;;;5126812;27;20051;-61
2023/10/18 13:10:15;;;;;;;6.00;4.20;;;;;;;;;;5124939;27;20568;-60
2023/10/18 13:12:53;;;;;;;8.23;5.50;;;;;;;;;;5125629;27;20571;-61
2023/10/18 13:15:22;;;;;;;7.20;4.60;;;;;;;;;;5125267;27;20502;-61
2023/10/18 13:17:49;;;;;;;4.97;4.30;;;;;;;;;;5137496;27;20055;-60
2023/10/18 13:20:15;;;;;;;5.93;4.60;;;;;;;;;;5124962;27;20052;-57
2023/10/18 13:22:42;;;;;;;6.32;4.78;;;;;;;;;;5124070;27;20047;-60
2023/10/18 13:25:25;;;;;;;6.70;5.05;;;;;;;;;;5125124;27;20194;-60
2023/10/18 13:27:53;;;;;;;7.68;5.07;;;;;;;;;;5142098;27;20462;-60
2023/10/18 13:33:11;;;;;;;8.23;5.18;;;;;;;;;;5125863;27;20071;-60
2023/10/18 13:35:40;;;;;;;4.97;4.00;;;;;;;;;;5124211;27;20576;-60
2023/10/18 13:38:07;;;;;;;8.32;5.13;;;;;;;;;;5125602;27;20059;-57
2023/10/18 13:40:39;;;;;;;13.85;5.30;;;;;;;;;;5123688;27;20104;-58
2023/10/18 13:43:09;;;;;;;6.50;5.13;;;;;;;;;;5125783;27;20051;-60
2023/10/18 13:45:37;;;;;;;6.10;4.82;;;;;;;;;;5125362;27;20113;-60
2023/10/18 13:48:03;;;;;;;5.45;4.28;;;;;;;;;;5126618;27;20052;-60
2023/10/18 13:50:37;;;;;;;5.85;4.80;;;;;;;;;;5136976;27;20045;-59
2023/10/18 13:53:04;;;;;;;8.77;4.45;;;;;;;;;;5117415;27;20509;-60
2023/10/18 13:55:31;;;;;;;6.32;4.47;;;;;;;;;;5132424;27;20116;-60
2023/10/18 13:57:58;;;;;;;6.18;4.35;;;;;;;;;;5124307;27;20052;-59
2023/10/18 14:00:26;;;;;;;10.15;4.95;;;;;;;;;;5124613;27;20060;-60
2023/10/18 14:02:58;;;;;;;8.27;4.95;;;;;;;;;;5122989;27;20535;-61
2023/10/18 14:05:25;;;;;;;5.75;4.32;;;;;;;;;;5125190;27;20051;-60
2023/10/18 14:07:52;;;;;;;6.93;5.00;;;;;;;;;;5124804;27;20083;-58
2023/10/18 14:10:36;;;;;;;5.60;4.40;;;;;;;;;;5113253;27;20609;-60
2023/10/18 14:13:06;;;;;;;10.30;4.78;;;;;;;;;;5125764;27;20567;-59
2023/10/18 14:15:33;;;;;;;8.25;5.43;;;;;;;;;;5115461;27;20580;-60
2023/10/18 14:18:02;;;;;;;8.20;5.00;;;;;;;;;;5125374;27;20057;-61
2023/10/18 14:20:38;;;;;;;11.05;5.00;;;;;;;;;;5124096;27;20051;-61
2023/10/18 14:23:09;;;;;;;6.82;4.28;;;;;;;;;;5124757;27;20105;-60
2023/10/18 14:25:42;;;;;;;9.60;5.18;;;;;;;;;;5114995;27;20099;-59
2023/10/18 14:28:09;;;;;;;8.45;4.80;;;;;;;;;;5126607;27;20135;-61
2023/10/18 14:30:35;;;;;;;6.28;4.55;;;;;;;;;;5134457;27;20140;-61
2023/10/18 14:33:04;;;;;;;9.90;5.13;;;;;;;;;;5123606;27;20039;-61
2023/10/18 14:35:33;;;;;;;12.35;5.20;;;;;;;;;;5114414;27;20052;-58
2023/10/18 14:38:00;;;;;;;6.75;4.78;;;;;;;;;;5103294;27;20675;-60
2023/10/18 14:40:27;;;;;;;10.98;6.15;;;;;;;;;;5118129;27;20518;-61
2023/10/18 14:42:53;;;;;;;6.15;4.70;;;;;;;;;;5114073;27;20048;-61
2023/10/18 14:45:20;;;;;;;8.00;5.03;;;;;;;;;;5121275;27;20064;-58
2023/10/18 14:47:48;;;;;;;6.65;4.95;;;;;;;;;;5104786;27;20171;-60
2023/10/18 14:50:15;;;;;;;7.55;5.22;;;;;;;;;;5116838;27;20578;-59
2023/10/18 14:52:45;;;;;;;5.57;4.35;;;;;;;;;;5115402;27;20052;-60
2023/10/18 14:55:12;;;;;;;6.72;4.78;;;;;;;;;;5123394;27;20170;-60
2023/10/18 14:57:40;;;;;;;7.40;4.85;;;;;;;;;;5122606;27;20056;-60
2023/10/18 15:00:19;;;;;;;8.35;5.20;;;;;;;;;;5122955;27;20091;-57
2023/10/18 15:02:50;;;;;;;9.50;5.13;;;;;;;;;;5114690;27;20600;-60
2023/10/18 15:05:17;;;;;;;6.68;4.88;;;;;;;;;;5123025;27;20520;-61
2023/10/18 15:07:47;;;;;;;6.78;5.47;;;;;;;;;;5123644;27;20054;-59
2023/10/18 15:10:15;;;;;;;8.15;4.82;;;;;;;;;;5119179;27;20051;-60
2023/10/18 15:12:42;;;;;;;18.17;4.72;;;;;;;;;;5109902;27;20052;-60
2023/10/18 15:15:09;;;;;;;9.23;5.05;;;;;;;;;;5122932;27;20083;-61
2023/10/18 15:17:39;;;;;;;8.23;4.97;;;;;;;;;;5123230;27;20054;-59
2023/10/18 15:20:07;;;;;;;6.55;5.35;;;;;;;;;;5122957;27;20059;-60
2023/10/18 15:22:33;;;;;;;5.57;4.95;;;;;;;;;;5120945;27;20478;-60
2023/10/18 15:25:01;;;;;;;7.22;4.82;;;;;;;;;;5120206;27;20060;-60
2023/10/18 15:27:30;;;;;;;8.32;5.10;;;;;;;;;;5115298;27;20120;-59
2023/10/18 15:29:56;;;;;;;8.30;5.28;;;;;;;;;;5122269;27;20170;-60
2023/10/18 15:32:23;;;;;;;9.07;5.45;;;;;;;;;;5120581;27;20052;-60
2023/10/18 15:34:50;;;;;;;8.57;5.50;;;;;;;;;;5123160;27;20051;-59
2023/10/18 15:37:19;;;;;;;9.13;5.32;;;;;;;;;;5122695;27;20088;-59
2023/10/18 15:39:45;;;;;;;6.65;5.30;;;;;;;;;;5124515;27;20058;-59
2023/10/18 15:42:12;;;;;;;10.57;4.70;;;;;;;;;;5118987;27;20055;-59
2023/10/18 15:44:38;;;;;;;6.35;5.03;;;;;;;;;;5121763;27;20047;-60
2023/10/18 15:47:08;;;;;;;6.28;5.28;;;;;;;;;;5121970;27;20100;-60
2023/10/18 15:49:35;;;;;;;8.55;5.00;;;;;;;;;;5122513;27;20525;-60
2023/10/18 15:52:03;;;;;;;7.10;5.00;;;;;;;;;;5123644;27;20057;-61
2023/10/18 15:54:29;;;;;;;7.80;4.85;;;;;;;;;;5120119;27;20054;-60
2023/10/18 15:56:56;;;;;;;7.07;5.05;;;;;;;;;;5121237;27;20047;-59
2023/10/18 15:59:22;;;;;;;11.40;5.05;;;;;;;;;;5121897;27;20576;-59